sensor_id;sensor_type;location;lat;lon;timestamp;P1;durP1;ratioP1;P2;durP2;ratioP2
13108;SDS011;6620;53.734;11.510;2023-02-24T00:00:35;9.50;;;1.57;;
13108;SDS011;6620;53.734;11.510;2023-02-24T00:03:02;12.70;;;1.90;;
13108;SDS011;6620;53.734;11.510;2023-02-24T00:05:29;14.68;;;1.80;;
13108;SDS011;6620;53.734;11.510;2023-02-24T00:07:54;15.68;;;1.77;;
13108;SDS011;6620;53.734;11.510;2023-02-24T00:10:20;15.97;;;1.90;;
13108;SDS011;6620;53.734;11.510;2023-02-24T00:12:45;12.68;;;2.30;;
13108;SDS011;6620;53.734;11.510;2023-02-24T00:15:12;8.32;;;1.95;;
13108;SDS011;6620;53.734;11.510;2023-02-24T00:17:37;14.75;;;1.30;;
13108;SDS011;6620;53.734;11.510;2023-02-24T00:20:02;14.65;;;1.80;;
13108;SDS011;6620;53.734;11.510;2023-02-24T00:22:31;8.95;;;1.52;;
13108;SDS011;6620;53.734;11.510;2023-02-24T00:24:56;11.07;;;1.17;;
13108;SDS011;6620;53.734;11.510;2023-02-24T00:27:25;15.55;;;2.72;;
13108;SDS011;6620;53.734;11.510;2023-02-24T00:29:50;12.25;;;1.92;;
13108;SDS011;6620;53.734;11.510;2023-02-24T00:32:15;17.73;;;1.40;;
13108;SDS011;6620;53.734;11.510;2023-02-24T00:34:41;9.70;;;1.25;;
13108;SDS011;6620;53.734;11.510;2023-02-24T00:37:07;14.48;;;1.10;;
13108;SDS011;6620;53.734;11.510;2023-02-24T00:39:32;13.50;;;1.25;;
13108;SDS011;6620;53.734;11.510;2023-02-24T00:42:00;11.60;;;1.20;;
13108;SDS011;6620;53.734;11.510;2023-02-24T00:46:57;13.90;;;2.60;;
13108;SDS011;6620;53.734;11.510;2023-02-24T00:49:22;13.45;;;1.67;;
13108;SDS011;6620;53.734;11.510;2023-02-24T00:51:48;10.35;;;3.33;;
13108;SDS011;6620;53.734;11.510;2023-02-24T00:54:14;9.60;;;0.95;;
13108;SDS011;6620;53.734;11.510;2023-02-24T00:56:43;10.90;;;1.23;;
13108;SDS011;6620;53.734;11.510;2023-02-24T00:59:09;14.20;;;1.60;;
13108;SDS011;6620;53.734;11.510;2023-02-24T01:01:35;12.25;;;2.10;;
13108;SDS011;6620;53.734;11.510;2023-02-24T01:04:00;14.68;;;1.20;;
13108;SDS011;6620;53.734;11.510;2023-02-24T01:06:36;16.95;;;1.95;;
13108;SDS011;6620;53.734;11.510;2023-02-24T01:09:01;10.55;;;1.02;;
13108;SDS011;6620;53.734;11.510;2023-02-24T01:11:32;10.55;;;1.92;;
13108;SDS011;6620;53.734;11.510;2023-02-24T01:14:17;9.25;;;2.15;;
13108;SDS011;6620;53.734;11.510;2023-02-24T01:16:43;10.30;;;1.10;;
13108;SDS011;6620;53.734;11.510;2023-02-24T01:19:10;15.23;;;1.48;;
13108;SDS011;6620;53.734;11.510;2023-02-24T01:21:36;15.10;;;1.95;;
13108;SDS011;6620;53.734;11.510;2023-02-24T01:24:01;11.67;;;1.33;;
13108;SDS011;6620;53.734;11.510;2023-02-24T01:26:27;14.18;;;1.33;;
13108;SDS011;6620;53.734;11.510;2023-02-24T01:28:53;10.07;;;1.85;;
13108;SDS011;6620;53.734;11.510;2023-02-24T01:31:18;7.55;;;0.80;;
13108;SDS011;6620;53.734;11.510;2023-02-24T01:33:47;9.25;;;0.95;;
13108;SDS011;6620;53.734;11.510;2023-02-24T01:36:14;15.25;;;1.30;;
13108;SDS011;6620;53.734;11.510;2023-02-24T01:38:40;5.55;;;1.10;;
13108;SDS011;6620;53.734;11.510;2023-02-24T01:41:09;8.32;;;1.23;;
13108;SDS011;6620;53.734;11.510;2023-02-24T01:46:19;14.82;;;1.13;;
13108;SDS011;6620;53.734;11.510;2023-02-24T01:48:47;6.22;;;0.98;;
13108;SDS011;6620;53.734;11.510;2023-02-24T01:51:12;12.07;;;0.82;;
13108;SDS011;6620;53.734;11.510;2023-02-24T01:53:37;5.40;;;1.00;;
13108;SDS011;6620;53.734;11.510;2023-02-24T01:56:03;8.80;;;1.00;;
13108;SDS011;6620;53.734;11.510;2023-02-24T01:58:31;14.52;;;2.75;;
13108;SDS011;6620;53.734;11.510;2023-02-24T02:00:57;9.95;;;0.77;;
13108;SDS011;6620;53.734;11.510;2023-02-24T02:03:27;6.72;;;0.70;;
13108;SDS011;6620;53.734;11.510;2023-02-24T02:05:58;13.02;;;1.20;;
13108;SDS011;6620;53.734;11.510;2023-02-24T02:08:25;12.38;;;1.95;;
13108;SDS011;6620;53.734;11.510;2023-02-24T02:10:50;10.70;;;0.85;;
13108;SDS011;6620;53.734;11.510;2023-02-24T02:15:53;4.57;;;0.93;;
13108;SDS011;6620;53.734;11.510;2023-02-24T02:34:07;11.30;;;1.73;;
13108;SDS011;6620;53.734;11.510;2023-02-24T02:42:11;6.53;;;1.45;;
13108;SDS011;6620;53.734;11.510;2023-02-24T02:44:39;9.47;;;1.03;;
13108;SDS011;6620;53.734;11.510;2023-02-24T02:50:11;12.57;;;1.10;;
13108;SDS011;6620;53.734;11.510;2023-02-24T02:52:44;8.52;;;0.90;;
13108;SDS011;6620;53.734;11.510;2023-02-24T02:55:13;8.18;;;0.80;;
13108;SDS011;6620;53.734;11.510;2023-02-24T02:57:42;7.75;;;0.82;;
13108;SDS011;6620;53.734;11.510;2023-02-24T03:00:13;12.15;;;0.50;;
13108;SDS011;6620;53.734;11.510;2023-02-24T03:02:45;6.63;;;0.70;;
13108;SDS011;6620;53.734;11.510;2023-02-24T03:05:13;7.90;;;1.17;;
13108;SDS011;6620;53.734;11.510;2023-02-24T03:07:41;7.78;;;1.70;;
13108;SDS011;6620;53.734;11.510;2023-02-24T03:10:10;6.85;;;0.63;;
13108;SDS011;6620;53.734;11.510;2023-02-24T03:12:41;6.15;;;0.80;;
13108;SDS011;6620;53.734;11.510;2023-02-24T03:15:08;2.92;;;0.50;;
13108;SDS011;6620;53.734;11.510;2023-02-24T03:17:36;5.45;;;0.93;;
13108;SDS011;6620;53.734;11.510;2023-02-24T03:20:08;10.80;;;1.08;;
13108;SDS011;6620;53.734;11.510;2023-02-24T03:22:45;8.10;;;1.33;;
13108;SDS011;6620;53.734;11.510;2023-02-24T03:25:10;5.82;;;0.32;;
13108;SDS011;6620;53.734;11.510;2023-02-24T03:27:41;10.82;;;1.50;;
13108;SDS011;6620;53.734;11.510;2023-02-24T03:32:40;8.20;;;1.50;;
13108;SDS011;6620;53.734;11.510;2023-02-24T03:37:40;2.30;;;0.40;;
13108;SDS011;6620;53.734;11.510;2023-02-24T03:40:07;6.93;;;0.70;;
13108;SDS011;6620;53.734;11.510;2023-02-24T03:42:42;9.77;;;0.85;;
13108;SDS011;6620;53.734;11.510;2023-02-24T03:45:09;5.05;;;1.20;;
13108;SDS011;6620;53.734;11.510;2023-02-24T03:47:34;6.47;;;1.25;;
13108;SDS011;6620;53.734;11.510;2023-02-24T03:50:00;6.15;;;2.10;;
13108;SDS011;6620;53.734;11.510;2023-02-24T03:52:39;11.73;;;3.93;;
13108;SDS011;6620;53.734;11.510;2023-02-24T03:55:12;9.40;;;4.03;;
13108;SDS011;6620;53.734;11.510;2023-02-24T04:05:30;16.75;;;10.07;;
13108;SDS011;6620;53.734;11.510;2023-02-24T04:07:58;17.17;;;9.52;;
13108;SDS011;6620;53.734;11.510;2023-02-24T04:13:17;14.02;;;6.72;;
13108;SDS011;6620;53.734;11.510;2023-02-24T04:15:45;5.55;;;2.95;;
13108;SDS011;6620;53.734;11.510;2023-02-24T04:18:16;8.75;;;1.88;;
13108;SDS011;6620;53.734;11.510;2023-02-24T04:20:42;8.15;;;2.42;;
13108;SDS011;6620;53.734;11.510;2023-02-24T04:23:12;8.35;;;2.97;;
13108;SDS011;6620;53.734;11.510;2023-02-24T04:25:39;9.32;;;1.83;;
13108;SDS011;6620;53.734;11.510;2023-02-24T04:28:06;8.00;;;1.00;;
13108;SDS011;6620;53.734;11.510;2023-02-24T04:30:33;5.03;;;1.05;;
13108;SDS011;6620;53.734;11.510;2023-02-24T04:32:59;5.65;;;1.48;;
13108;SDS011;6620;53.734;11.510;2023-02-24T04:35:25;4.20;;;0.40;;
13108;SDS011;6620;53.734;11.510;2023-02-24T04:37:53;6.35;;;0.80;;
13108;SDS011;6620;53.734;11.510;2023-02-24T04:40:19;7.63;;;0.77;;
13108;SDS011;6620;53.734;11.510;2023-02-24T04:42:46;3.72;;;0.60;;
13108;SDS011;6620;53.734;11.510;2023-02-24T04:45:13;8.05;;;1.02;;
13108;SDS011;6620;53.734;11.510;2023-02-24T04:47:40;7.38;;;0.73;;
13108;SDS011;6620;53.734;11.510;2023-02-24T04:50:06;9.38;;;0.90;;
13108;SDS011;6620;53.734;11.510;2023-02-24T04:52:34;3.65;;;0.45;;
13108;SDS011;6620;53.734;11.510;2023-02-24T04:55:00;0.30;;;0.20;;
13108;SDS011;6620;53.734;11.510;2023-02-24T04:57:25;10.60;;;0.77;;
13108;SDS011;6620;53.734;11.510;2023-02-24T04:59:50;4.27;;;0.47;;
13108;SDS011;6620;53.734;11.510;2023-02-24T05:02:18;9.18;;;1.17;;
13108;SDS011;6620;53.734;11.510;2023-02-24T05:04:45;7.93;;;0.73;;
13108;SDS011;6620;53.734;11.510;2023-02-24T05:07:13;5.78;;;1.00;;
13108;SDS011;6620;53.734;11.510;2023-02-24T05:09:40;6.32;;;0.63;;
13108;SDS011;6620;53.734;11.510;2023-02-24T05:12:05;6.80;;;0.80;;
13108;SDS011;6620;53.734;11.510;2023-02-24T05:14:30;8.73;;;1.00;;
13108;SDS011;6620;53.734;11.510;2023-02-24T05:16:55;11.10;;;0.57;;
13108;SDS011;6620;53.734;11.510;2023-02-24T05:19:24;8.43;;;1.25;;
13108;SDS011;6620;53.734;11.510;2023-02-24T05:22:07;6.45;;;1.25;;
13108;SDS011;6620;53.734;11.510;2023-02-24T05:24:38;7.20;;;0.90;;
13108;SDS011;6620;53.734;11.510;2023-02-24T05:27:05;4.97;;;0.68;;
13108;SDS011;6620;53.734;11.510;2023-02-24T05:29:32;9.20;;;0.98;;
13108;SDS011;6620;53.734;11.510;2023-02-24T05:31:57;9.50;;;0.85;;
13108;SDS011;6620;53.734;11.510;2023-02-24T05:34:24;10.20;;;0.82;;
13108;SDS011;6620;53.734;11.510;2023-02-24T05:36:49;5.05;;;0.55;;
13108;SDS011;6620;53.734;11.510;2023-02-24T05:39:15;8.57;;;0.67;;
13108;SDS011;6620;53.734;11.510;2023-02-24T05:41:43;4.55;;;0.68;;
13108;SDS011;6620;53.734;11.510;2023-02-24T05:44:10;9.85;;;1.08;;
13108;SDS011;6620;53.734;11.510;2023-02-24T05:46:37;7.57;;;0.98;;
13108;SDS011;6620;53.734;11.510;2023-02-24T05:49:04;6.95;;;1.15;;
13108;SDS011;6620;53.734;11.510;2023-02-24T05:51:33;9.43;;;1.95;;
13108;SDS011;6620;53.734;11.510;2023-02-24T05:54:01;11.93;;;2.65;;
13108;SDS011;6620;53.734;11.510;2023-02-24T05:56:28;12.63;;;3.72;;
13108;SDS011;6620;53.734;11.510;2023-02-24T05:58:54;20.30;;;4.30;;
13108;SDS011;6620;53.734;11.510;2023-02-24T06:01:26;21.08;;;5.90;;
13108;SDS011;6620;53.734;11.510;2023-02-24T06:03:54;11.90;;;3.20;;
13108;SDS011;6620;53.734;11.510;2023-02-24T06:06:19;7.30;;;1.13;;
13108;SDS011;6620;53.734;11.510;2023-02-24T06:08:47;14.20;;;3.22;;
13108;SDS011;6620;53.734;11.510;2023-02-24T06:11:16;9.90;;;2.00;;
13108;SDS011;6620;53.734;11.510;2023-02-24T06:13:43;8.15;;;1.40;;
13108;SDS011;6620;53.734;11.510;2023-02-24T06:16:14;11.80;;;1.35;;
13108;SDS011;6620;53.734;11.510;2023-02-24T06:18:40;7.32;;;1.33;;
13108;SDS011;6620;53.734;11.510;2023-02-24T06:21:05;10.75;;;1.65;;
13108;SDS011;6620;53.734;11.510;2023-02-24T06:23:36;4.68;;;0.80;;
13108;SDS011;6620;53.734;11.510;2023-02-24T06:26:02;4.20;;;0.85;;
13108;SDS011;6620;53.734;11.510;2023-02-24T06:28:28;10.25;;;1.20;;
13108;SDS011;6620;53.734;11.510;2023-02-24T06:30:53;7.72;;;0.77;;
13108;SDS011;6620;53.734;11.510;2023-02-24T06:33:20;6.20;;;0.60;;
13108;SDS011;6620;53.734;11.510;2023-02-24T06:35:46;7.70;;;0.90;;
13108;SDS011;6620;53.734;11.510;2023-02-24T06:38:11;9.17;;;0.70;;
13108;SDS011;6620;53.734;11.510;2023-02-24T06:40:36;2.13;;;0.50;;
13108;SDS011;6620;53.734;11.510;2023-02-24T06:43:01;7.33;;;0.63;;
13108;SDS011;6620;53.734;11.510;2023-02-24T06:45:27;12.00;;;0.85;;
13108;SDS011;6620;53.734;11.510;2023-02-24T06:47:52;7.35;;;0.93;;
13108;SDS011;6620;53.734;11.510;2023-02-24T06:50:18;1.37;;;0.30;;
13108;SDS011;6620;53.734;11.510;2023-02-24T06:52:47;6.40;;;0.70;;
13108;SDS011;6620;53.734;11.510;2023-02-24T06:55:13;4.80;;;0.70;;
13108;SDS011;6620;53.734;11.510;2023-02-24T06:57:51;1.80;;;0.52;;
13108;SDS011;6620;53.734;11.510;2023-02-24T07:00:21;9.65;;;0.80;;
13108;SDS011;6620;53.734;11.510;2023-02-24T07:02:49;14.43;;;1.40;;
13108;SDS011;6620;53.734;11.510;2023-02-24T07:05:14;4.38;;;1.20;;
13108;SDS011;6620;53.734;11.510;2023-02-24T07:07:40;2.63;;;1.23;;
13108;SDS011;6620;53.734;11.510;2023-02-24T07:10:10;2.30;;;0.60;;
13108;SDS011;6620;53.734;11.510;2023-02-24T07:12:37;6.95;;;0.80;;
13108;SDS011;6620;53.734;11.510;2023-02-24T07:15:02;6.50;;;0.60;;
13108;SDS011;6620;53.734;11.510;2023-02-24T07:17:27;9.68;;;0.80;;
13108;SDS011;6620;53.734;11.510;2023-02-24T07:19:52;3.70;;;0.73;;
13108;SDS011;6620;53.734;11.510;2023-02-24T07:22:18;13.88;;;2.08;;
13108;SDS011;6620;53.734;11.510;2023-02-24T07:24:48;1.15;;;0.43;;
13108;SDS011;6620;53.734;11.510;2023-02-24T07:27:14;1.35;;;0.73;;
13108;SDS011;6620;53.734;11.510;2023-02-24T07:29:46;7.53;;;0.80;;
13108;SDS011;6620;53.734;11.510;2023-02-24T07:32:11;6.22;;;1.02;;
13108;SDS011;6620;53.734;11.510;2023-02-24T07:34:37;4.53;;;1.00;;
13108;SDS011;6620;53.734;11.510;2023-02-24T07:37:03;4.45;;;0.55;;
13108;SDS011;6620;53.734;11.510;2023-02-24T07:39:31;0.88;;;0.28;;
13108;SDS011;6620;53.734;11.510;2023-02-24T07:41:57;2.15;;;0.52;;
13108;SDS011;6620;53.734;11.510;2023-02-24T07:44:23;2.10;;;0.57;;
13108;SDS011;6620;53.734;11.510;2023-02-24T07:46:48;4.40;;;0.90;;
13108;SDS011;6620;53.734;11.510;2023-02-24T07:49:15;11.88;;;1.65;;
13108;SDS011;6620;53.734;11.510;2023-02-24T07:51:42;6.72;;;1.63;;
13108;SDS011;6620;53.734;11.510;2023-02-24T07:54:08;13.23;;;3.33;;
13108;SDS011;6620;53.734;11.510;2023-02-24T07:56:35;8.68;;;3.65;;
13108;SDS011;6620;53.734;11.510;2023-02-24T07:59:09;12.05;;;3.05;;
13108;SDS011;6620;53.734;11.510;2023-02-24T08:01:39;8.25;;;2.28;;
13108;SDS011;6620;53.734;11.510;2023-02-24T08:04:06;9.55;;;2.58;;
13108;SDS011;6620;53.734;11.510;2023-02-24T08:06:37;14.50;;;1.73;;
13108;SDS011;6620;53.734;11.510;2023-02-24T08:09:07;6.43;;;1.58;;
13108;SDS011;6620;53.734;11.510;2023-02-24T08:11:52;10.63;;;2.05;;
13108;SDS011;6620;53.734;11.510;2023-02-24T08:14:18;4.18;;;1.17;;
13108;SDS011;6620;53.734;11.510;2023-02-24T08:16:45;4.28;;;1.15;;
13108;SDS011;6620;53.734;11.510;2023-02-24T08:19:11;4.93;;;0.77;;
13108;SDS011;6620;53.734;11.510;2023-02-24T08:21:43;7.13;;;1.05;;
13108;SDS011;6620;53.734;11.510;2023-02-24T08:24:14;2.80;;;0.47;;
13108;SDS011;6620;53.734;11.510;2023-02-24T08:26:49;8.48;;;1.75;;
13108;SDS011;6620;53.734;11.510;2023-02-24T08:29:29;4.00;;;0.98;;
13108;SDS011;6620;53.734;11.510;2023-02-24T08:31:55;3.90;;;1.08;;
13108;SDS011;6620;53.734;11.510;2023-02-24T08:34:21;11.70;;;1.65;;
13108;SDS011;6620;53.734;11.510;2023-02-24T08:36:46;7.47;;;1.77;;
13108;SDS011;6620;53.734;11.510;2023-02-24T08:39:19;2.95;;;0.77;;
13108;SDS011;6620;53.734;11.510;2023-02-24T08:41:46;3.28;;;1.02;;
13108;SDS011;6620;53.734;11.510;2023-02-24T08:44:15;6.20;;;1.65;;
13108;SDS011;6620;53.734;11.510;2023-02-24T08:46:43;9.93;;;1.83;;
13108;SDS011;6620;53.734;11.510;2023-02-24T08:49:09;6.13;;;1.13;;
13108;SDS011;6620;53.734;11.510;2023-02-24T08:51:36;9.30;;;2.00;;
13108;SDS011;6620;53.734;11.510;2023-02-24T08:54:08;5.00;;;1.52;;
13108;SDS011;6620;53.734;11.510;2023-02-24T08:56:39;4.22;;;1.27;;
13108;SDS011;6620;53.734;11.510;2023-02-24T08:59:07;0.85;;;0.65;;
13108;SDS011;6620;53.734;11.510;2023-02-24T09:01:39;1.27;;;0.63;;
13108;SDS011;6620;53.734;11.510;2023-02-24T09:04:16;2.25;;;1.77;;
13108;SDS011;6620;53.734;11.510;2023-02-24T09:06:44;3.88;;;1.83;;
13108;SDS011;6620;53.734;11.510;2023-02-24T09:09:11;8.57;;;1.98;;
13108;SDS011;6620;53.734;11.510;2023-02-24T09:14:11;5.25;;;1.92;;
13108;SDS011;6620;53.734;11.510;2023-02-24T09:16:41;2.08;;;0.98;;
13108;SDS011;6620;53.734;11.510;2023-02-24T09:19:26;2.55;;;1.98;;
13108;SDS011;6620;53.734;11.510;2023-02-24T09:22:04;5.57;;;2.90;;
13108;SDS011;6620;53.734;11.510;2023-02-24T09:24:38;3.38;;;1.17;;
13108;SDS011;6620;53.734;11.510;2023-02-24T09:27:04;5.45;;;2.30;;
13108;SDS011;6620;53.734;11.510;2023-02-24T09:29:29;0.50;;;0.50;;
13108;SDS011;6620;53.734;11.510;2023-02-24T09:31:58;4.93;;;1.90;;
13108;SDS011;6620;53.734;11.510;2023-02-24T09:34:36;7.72;;;3.08;;
13108;SDS011;6620;53.734;11.510;2023-02-24T09:37:02;1.15;;;1.00;;
13108;SDS011;6620;53.734;11.510;2023-02-24T09:39:31;3.33;;;1.75;;
13108;SDS011;6620;53.734;11.510;2023-02-24T09:42:18;2.85;;;2.38;;
13108;SDS011;6620;53.734;11.510;2023-02-24T09:44:45;1.70;;;1.48;;
13108;SDS011;6620;53.734;11.510;2023-02-24T09:47:16;2.38;;;1.95;;
13108;SDS011;6620;53.734;11.510;2023-02-24T09:50:02;1.15;;;1.15;;
13108;SDS011;6620;53.734;11.510;2023-02-24T09:52:30;2.88;;;1.52;;
13108;SDS011;6620;53.734;11.510;2023-02-24T09:55:14;2.60;;;1.33;;
13108;SDS011;6620;53.734;11.510;2023-02-24T09:57:50;0.83;;;0.83;;
13108;SDS011;6620;53.734;11.510;2023-02-24T10:00:39;4.63;;;1.90;;
13108;SDS011;6620;53.734;11.510;2023-02-24T10:03:17;2.95;;;2.60;;
13108;SDS011;6620;53.734;11.510;2023-02-24T10:05:54;3.10;;;1.23;;
13108;SDS011;6620;53.734;11.510;2023-02-24T10:08:25;3.38;;;2.65;;
13108;SDS011;6620;53.734;11.510;2023-02-24T10:10:55;3.67;;;2.47;;
13108;SDS011;6620;53.734;11.510;2023-02-24T10:13:36;1.95;;;1.83;;
13108;SDS011;6620;53.734;11.510;2023-02-24T10:16:03;2.58;;;1.98;;
13108;SDS011;6620;53.734;11.510;2023-02-24T10:24:37;2.67;;;1.50;;
13108;SDS011;6620;53.734;11.510;2023-02-24T10:27:08;1.80;;;1.20;;
13108;SDS011;6620;53.734;11.510;2023-02-24T10:29:42;2.67;;;1.80;;
13108;SDS011;6620;53.734;11.510;2023-02-24T10:32:18;6.97;;;2.47;;
13108;SDS011;6620;53.734;11.510;2023-02-24T10:34:55;2.13;;;1.92;;
13108;SDS011;6620;53.734;11.510;2023-02-24T10:37:21;1.98;;;1.13;;
13108;SDS011;6620;53.734;11.510;2023-02-24T10:39:47;1.42;;;1.33;;
13108;SDS011;6620;53.734;11.510;2023-02-24T10:42:27;6.35;;;1.77;;
13108;SDS011;6620;53.734;11.510;2023-02-24T10:45:04;2.28;;;1.52;;
13108;SDS011;6620;53.734;11.510;2023-02-24T10:47:36;1.92;;;1.52;;
13108;SDS011;6620;53.734;11.510;2023-02-24T10:50:17;1.35;;;1.08;;
13108;SDS011;6620;53.734;11.510;2023-02-24T10:52:43;3.30;;;1.92;;
13108;SDS011;6620;53.734;11.510;2023-02-24T11:00:53;2.80;;;1.38;;
13108;SDS011;6620;53.734;11.510;2023-02-24T11:03:36;2.00;;;1.80;;
13108;SDS011;6620;53.734;11.510;2023-02-24T11:06:17;1.52;;;1.42;;
13108;SDS011;6620;53.734;11.510;2023-02-24T11:11:56;2.72;;;1.95;;
13108;SDS011;6620;53.734;11.510;2023-02-24T11:17:30;1.58;;;1.48;;
13108;SDS011;6620;53.734;11.510;2023-02-24T11:19:57;3.03;;;2.65;;
13108;SDS011;6620;53.734;11.510;2023-02-24T11:22:31;2.28;;;1.48;;
13108;SDS011;6620;53.734;11.510;2023-02-24T11:27:43;4.78;;;2.65;;
13108;SDS011;6620;53.734;11.510;2023-02-24T11:30:19;7.60;;;3.50;;
13108;SDS011;6620;53.734;11.510;2023-02-24T11:33:01;5.50;;;3.83;;
13108;SDS011;6620;53.734;11.510;2023-02-24T11:35:41;3.30;;;2.45;;
13108;SDS011;6620;53.734;11.510;2023-02-24T11:40:42;5.90;;;2.65;;
13108;SDS011;6620;53.734;11.510;2023-02-24T11:43:16;2.25;;;1.80;;
13108;SDS011;6620;53.734;11.510;2023-02-24T11:45:45;2.97;;;2.58;;
13108;SDS011;6620;53.734;11.510;2023-02-24T11:50:49;3.40;;;3.00;;
13108;SDS011;6620;53.734;11.510;2023-02-24T11:58:31;3.30;;;3.00;;
13108;SDS011;6620;53.734;11.510;2023-02-24T12:01:07;6.13;;;4.80;;
13108;SDS011;6620;53.734;11.510;2023-02-24T12:03:39;1.05;;;0.80;;
13108;SDS011;6620;53.734;11.510;2023-02-24T12:06:09;4.18;;;3.38;;
13108;SDS011;6620;53.734;11.510;2023-02-24T12:08:38;3.60;;;2.78;;
13108;SDS011;6620;53.734;11.510;2023-02-24T12:11:14;2.10;;;1.85;;
13108;SDS011;6620;53.734;11.510;2023-02-24T12:13:53;2.75;;;1.42;;
13108;SDS011;6620;53.734;11.510;2023-02-24T12:16:21;2.08;;;1.80;;
13108;SDS011;6620;53.734;11.510;2023-02-24T12:18:55;1.55;;;1.45;;
13108;SDS011;6620;53.734;11.510;2023-02-24T12:21:41;2.28;;;1.50;;
13108;SDS011;6620;53.734;11.510;2023-02-24T12:24:12;1.75;;;1.65;;
13108;SDS011;6620;53.734;11.510;2023-02-24T12:26:41;2.17;;;1.90;;
13108;SDS011;6620;53.734;11.510;2023-02-24T12:36:46;2.67;;;1.87;;
13108;SDS011;6620;53.734;11.510;2023-02-24T12:39:14;3.25;;;2.28;;
13108;SDS011;6620;53.734;11.510;2023-02-24T12:47:03;2.50;;;2.30;;
13108;SDS011;6620;53.734;11.510;2023-02-24T12:49:42;2.35;;;2.15;;
13108;SDS011;6620;53.734;11.510;2023-02-24T12:55:00;1.50;;;1.40;;
13108;SDS011;6620;53.734;11.510;2023-02-24T12:57:54;1.48;;;1.38;;
13108;SDS011;6620;53.734;11.510;2023-02-24T13:00:40;1.42;;;1.20;;
13108;SDS011;6620;53.734;11.510;2023-02-24T13:05:31;2.63;;;2.40;;
13108;SDS011;6620;53.734;11.510;2023-02-24T13:12:54;4.43;;;2.30;;
13108;SDS011;6620;53.734;11.510;2023-02-24T13:15:24;1.15;;;1.10;;
13108;SDS011;6620;53.734;11.510;2023-02-24T13:17:51;5.00;;;3.13;;
13108;SDS011;6620;53.734;11.510;2023-02-24T13:20:33;5.60;;;2.97;;
13108;SDS011;6620;53.734;11.510;2023-02-24T13:22:59;4.63;;;1.92;;
13108;SDS011;6620;53.734;11.510;2023-02-24T13:25:29;3.38;;;2.97;;
13108;SDS011;6620;53.734;11.510;2023-02-24T13:27:55;3.75;;;1.92;;
13108;SDS011;6620;53.734;11.510;2023-02-24T13:30:33;4.00;;;2.67;;
13108;SDS011;6620;53.734;11.510;2023-02-24T13:33:03;5.72;;;3.17;;
13108;SDS011;6620;53.734;11.510;2023-02-24T13:35:31;4.13;;;2.40;;
13108;SDS011;6620;53.734;11.510;2023-02-24T13:38:05;5.03;;;2.75;;
13108;SDS011;6620;53.734;11.510;2023-02-24T13:40:31;7.40;;;5.60;;
13108;SDS011;6620;53.734;11.510;2023-02-24T13:45:25;13.38;;;5.78;;
13108;SDS011;6620;53.734;11.510;2023-02-24T13:55:39;22.47;;;10.23;;
13108;SDS011;6620;53.734;11.510;2023-02-24T13:58:16;22.30;;;11.45;;
13108;SDS011;6620;53.734;11.510;2023-02-24T14:01:02;22.75;;;11.70;;
13108;SDS011;6620;53.734;11.510;2023-02-24T14:03:29;21.35;;;9.77;;
13108;SDS011;6620;53.734;11.510;2023-02-24T14:05:54;20.80;;;9.82;;
13108;SDS011;6620;53.734;11.510;2023-02-24T14:08:22;17.65;;;8.35;;
13108;SDS011;6620;53.734;11.510;2023-02-24T14:10:53;33.22;;;16.35;;
13108;SDS011;6620;53.734;11.510;2023-02-24T14:13:21;54.65;;;25.63;;
13108;SDS011;6620;53.734;11.510;2023-02-24T14:15:51;36.08;;;16.13;;
13108;SDS011;6620;53.734;11.510;2023-02-24T14:18:18;36.08;;;19.02;;
13108;SDS011;6620;53.734;11.510;2023-02-24T14:20:44;31.25;;;14.15;;
13108;SDS011;6620;53.734;11.510;2023-02-24T14:23:20;46.10;;;23.63;;
13108;SDS011;6620;53.734;11.510;2023-02-24T14:25:46;49.90;;;22.85;;
13108;SDS011;6620;53.734;11.510;2023-02-24T14:28:12;51.92;;;24.70;;
13108;SDS011;6620;53.734;11.510;2023-02-24T14:30:42;38.42;;;19.20;;
13108;SDS011;6620;53.734;11.510;2023-02-24T14:33:14;38.10;;;17.33;;
13108;SDS011;6620;53.734;11.510;2023-02-24T14:35:45;36.15;;;18.98;;
13108;SDS011;6620;53.734;11.510;2023-02-24T14:40:54;15.50;;;8.98;;
13108;SDS011;6620;53.734;11.510;2023-02-24T14:43:20;8.50;;;6.07;;
13108;SDS011;6620;53.734;11.510;2023-02-24T14:45:48;15.53;;;10.10;;
13108;SDS011;6620;53.734;11.510;2023-02-24T14:48:24;5.47;;;3.88;;
13108;SDS011;6620;53.734;11.510;2023-02-24T14:50:49;9.63;;;6.80;;
13108;SDS011;6620;53.734;11.510;2023-02-24T14:53:15;10.13;;;6.10;;
13108;SDS011;6620;53.734;11.510;2023-02-24T14:55:44;6.07;;;4.32;;
13108;SDS011;6620;53.734;11.510;2023-02-24T14:58:20;10.82;;;6.85;;
13108;SDS011;6620;53.734;11.510;2023-02-24T15:00:52;13.35;;;6.55;;
13108;SDS011;6620;53.734;11.510;2023-02-24T15:03:39;16.42;;;10.77;;
13108;SDS011;6620;53.734;11.510;2023-02-24T15:06:11;20.50;;;10.35;;
13108;SDS011;6620;53.734;11.510;2023-02-24T15:13:40;15.63;;;9.07;;
13108;SDS011;6620;53.734;11.510;2023-02-24T15:16:25;17.08;;;10.93;;
13108;SDS011;6620;53.734;11.510;2023-02-24T15:18:52;11.02;;;9.10;;
13108;SDS011;6620;53.734;11.510;2023-02-24T15:21:19;18.65;;;12.25;;
13108;SDS011;6620;53.734;11.510;2023-02-24T15:23:45;16.88;;;11.60;;
13108;SDS011;6620;53.734;11.510;2023-02-24T15:26:23;17.83;;;7.70;;
13108;SDS011;6620;53.734;11.510;2023-02-24T15:28:55;18.55;;;12.50;;
13108;SDS011;6620;53.734;11.510;2023-02-24T15:31:21;12.50;;;9.85;;
13108;SDS011;6620;53.734;11.510;2023-02-24T15:33:59;16.17;;;11.15;;
13108;SDS011;6620;53.734;11.510;2023-02-24T15:36:34;17.85;;;6.78;;
13108;SDS011;6620;53.734;11.510;2023-02-24T15:39:04;14.55;;;9.98;;
13108;SDS011;6620;53.734;11.510;2023-02-24T15:41:39;22.58;;;10.60;;
13108;SDS011;6620;53.734;11.510;2023-02-24T15:44:05;14.63;;;9.60;;
13108;SDS011;6620;53.734;11.510;2023-02-24T15:46:32;11.85;;;7.63;;
13108;SDS011;6620;53.734;11.510;2023-02-24T15:48:58;20.45;;;10.55;;
13108;SDS011;6620;53.734;11.510;2023-02-24T15:51:31;16.50;;;10.30;;
13108;SDS011;6620;53.734;11.510;2023-02-24T15:53:58;16.10;;;10.27;;
13108;SDS011;6620;53.734;11.510;2023-02-24T15:56:24;15.40;;;10.13;;
13108;SDS011;6620;53.734;11.510;2023-02-24T15:58:49;16.70;;;7.83;;
13108;SDS011;6620;53.734;11.510;2023-02-24T16:01:14;12.32;;;8.60;;
13108;SDS011;6620;53.734;11.510;2023-02-24T16:03:39;13.27;;;8.38;;
13108;SDS011;6620;53.734;11.510;2023-02-24T16:06:05;16.25;;;8.95;;
13108;SDS011;6620;53.734;11.510;2023-02-24T16:08:31;13.55;;;9.55;;
13108;SDS011;6620;53.734;11.510;2023-02-24T16:10:57;13.75;;;8.15;;
13108;SDS011;6620;53.734;11.510;2023-02-24T16:13:23;13.05;;;10.35;;
13108;SDS011;6620;53.734;11.510;2023-02-24T16:15:49;15.15;;;10.00;;
13108;SDS011;6620;53.734;11.510;2023-02-24T16:18:16;19.45;;;10.88;;
13108;SDS011;6620;53.734;11.510;2023-02-24T16:20:43;19.92;;;10.43;;
13108;SDS011;6620;53.734;11.510;2023-02-24T16:23:08;19.55;;;11.10;;
13108;SDS011;6620;53.734;11.510;2023-02-24T16:25:36;21.30;;;12.50;;
13108;SDS011;6620;53.734;11.510;2023-02-24T16:28:02;19.48;;;11.43;;
13108;SDS011;6620;53.734;11.510;2023-02-24T16:30:28;20.33;;;12.45;;
13108;SDS011;6620;53.734;11.510;2023-02-24T16:32:54;18.65;;;12.35;;
13108;SDS011;6620;53.734;11.510;2023-02-24T16:35:19;21.42;;;12.73;;
13108;SDS011;6620;53.734;11.510;2023-02-24T16:37:45;16.10;;;12.10;;
13108;SDS011;6620;53.734;11.510;2023-02-24T16:40:22;15.23;;;9.43;;
13108;SDS011;6620;53.734;11.510;2023-02-24T16:42:48;19.60;;;9.73;;
13108;SDS011;6620;53.734;11.510;2023-02-24T16:45:13;17.15;;;12.27;;
13108;SDS011;6620;53.734;11.510;2023-02-24T16:47:38;14.60;;;9.25;;
13108;SDS011;6620;53.734;11.510;2023-02-24T16:50:04;10.93;;;8.85;;
13108;SDS011;6620;53.734;11.510;2023-02-24T16:52:30;14.38;;;10.07;;
13108;SDS011;6620;53.734;11.510;2023-02-24T16:54:55;15.07;;;9.27;;